Time;durP1;ratioP1;P1;durP2;ratioP2;P2;SDS_P1;SDS_P2;PMS_P1;PMS_P2;Temp;Humidity;BMP_temperature;BMP_pressure;BME280_temperature;BME280_humidity;BME280_pressure;Samples;Min_cycle;Max_cycle;Signal;HPM_P1;HPM_P2
2022/12/13 00:00:09;;;;;;;3.33;3.13;;;19.20;35.70;;;;;;4987104;28;20224;-61
2022/12/13 00:02:34;;;;;;;3.80;3.60;;;19.20;35.70;;;;;;4974227;28;20222;-61
2022/12/13 00:05:00;;;;;;;3.17;2.97;;;19.20;35.70;;;;;;4987372;28;20428;-61
2022/12/13 00:07:25;;;;;;;3.80;3.60;;;19.20;35.70;;;;;;4995690;28;20211;-61
2022/12/13 00:09:51;;;;;;;3.70;3.50;;;19.20;35.70;;;;;;4979641;28;20310;-61
2022/12/13 00:12:16;;;;;;;3.80;3.60;;;19.20;35.70;;;;;;4982428;28;20683;-61
2022/12/13 00:14:42;;;;;;;3.83;3.53;;;19.20;35.70;;;;;;4984361;28;20219;-61
2022/12/13 00:17:07;;;;;;;3.20;3.00;;;19.20;35.80;;;;;;4981738;28;20254;-61
2022/12/13 00:19:33;;;;;;;3.80;3.60;;;19.20;35.80;;;;;;4987250;28;20331;-61
2022/12/13 00:21:58;;;;;;;2.90;2.70;;;19.20;35.80;;;;;;4978309;28;20208;-60
2022/12/13 00:24:24;;;;;;;3.50;3.30;;;19.20;35.70;;;;;;4997230;28;20688;-60
2022/12/13 00:26:49;;;;;;;3.63;3.43;;;19.20;35.70;;;;;;4984816;28;20223;-61
2022/12/13 00:29:15;;;;;;;4.13;3.83;;;19.20;35.80;;;;;;4982354;28;20212;-61
2022/12/13 00:31:40;;;;;;;3.63;3.43;;;19.20;35.70;;;;;;4983199;28;20251;-60
2022/12/13 00:34:06;;;;;;;3.30;3.10;;;19.20;35.80;;;;;;4983636;28;20231;-61
2022/12/13 00:36:31;;;;;;;3.57;3.37;;;19.20;35.70;;;;;;4991806;28;20643;-61
2022/12/13 00:39:00;;;;;;;3.63;3.43;;;19.20;35.70;;;;;;5003815;28;20863;-61
2022/12/13 00:41:29;;;;;;;3.53;3.33;;;19.20;35.70;;;;;;4997258;28;20265;-60
2022/12/13 00:43:54;;;;;;;3.20;3.00;;;19.20;35.70;;;;;;5003839;28;20433;-62
2022/12/13 00:46:21;;;;;;;3.23;3.03;;;19.20;35.70;;;;;;5001344;28;20426;-61
2022/12/13 00:48:52;;;;;;;3.67;3.47;;;19.20;35.70;;;;;;5002965;28;20228;-61
2022/12/13 00:51:19;;;;;;;3.30;3.10;;;19.20;35.70;;;;;;5001959;28;20444;-60
2022/12/13 00:53:45;;;;;;;3.23;3.03;;;19.20;35.70;;;;;;5002116;28;20441;-61
2022/12/13 00:56:16;;;;;;;3.40;3.20;;;19.20;35.70;;;;;;4999873;28;20423;-60
2022/12/13 00:58:42;;;;;;;3.87;3.67;;;19.20;35.70;;;;;;4985621;28;20433;-61
2022/12/13 01:01:13;;;;;;;3.53;3.33;;;19.20;35.70;;;;;;4987371;28;20454;-61
2022/12/13 01:03:41;;;;;;;3.37;3.17;;;19.20;35.70;;;;;;4990150;28;20221;-61
2022/12/13 01:06:13;;;;;;;3.57;3.37;;;19.20;35.70;;;;;;4982990;28;20476;-61
2022/12/13 01:08:39;;;;;;;3.60;3.40;;;19.20;35.70;;;;;;4980036;28;20425;-61
2022/12/13 01:11:06;;;;;;;3.23;3.03;;;19.20;35.70;;;;;;4983163;28;20468;-60
2022/12/13 01:13:32;;;;;;;3.50;3.30;;;19.20;35.70;;;;;;4981920;28;20228;-61
2022/12/13 01:15:57;;;;;;;3.33;3.00;;;19.20;35.80;;;;;;4986819;28;21370;-61
2022/12/13 01:18:23;;;;;;;3.83;3.63;;;19.20;35.70;;;;;;4984634;28;20465;-61
2022/12/13 01:21:06;;;;;;;3.63;3.40;;;19.20;35.60;;;;;;4979322;28;20239;-61
2022/12/13 01:23:33;;;;;;;3.70;3.50;;;19.20;35.60;;;;;;4993146;28;20253;-61
2022/12/13 01:26:05;;;;;;;3.50;3.30;;;19.20;35.70;;;;;;4996285;28;20440;-61
2022/12/13 01:28:31;;;;;;;3.90;3.60;;;19.20;35.70;;;;;;4980501;28;20541;-61
2022/12/13 01:30:59;;;;;;;3.13;2.93;;;19.20;35.70;;;;;;4985249;28;21079;-61
2022/12/13 01:33:25;;;;;;;3.27;3.07;;;19.20;35.70;;;;;;4980942;28;20885;-60
2022/12/13 01:35:51;;;;;;;3.60;3.40;;;19.20;35.70;;;;;;4984207;28;20545;-60
2022/12/13 01:38:17;;;;;;;3.10;2.90;;;19.20;35.60;;;;;;4996645;28;20417;-60
2022/12/13 01:40:57;;;;;;;3.60;3.30;;;19.20;35.70;;;;;;5000911;28;20227;-61
2022/12/13 01:43:43;;;;;;;3.30;3.10;;;19.20;35.70;;;;;;4977653;28;20525;-61
2022/12/13 01:46:14;;;;;;;3.60;3.30;;;19.20;35.70;;;;;;4989211;28;20461;-61
2022/12/13 01:48:58;;;;;;;3.30;3.10;;;19.20;35.70;;;;;;4977303;28;20430;-62
2022/12/13 01:51:35;;;;;;;3.30;3.10;;;19.20;35.70;;;;;;4980471;28;20448;-61
2022/12/13 01:54:04;;;;;;;3.00;2.80;;;19.20;35.70;;;;;;5000218;28;20985;-61
2022/12/13 01:56:37;;;;;;;3.57;3.37;;;19.20;35.60;;;;;;4998265;28;20453;-61
2022/12/13 01:59:05;;;;;;;3.20;3.00;;;19.20;35.70;;;;;;5003881;28;20440;-60
2022/12/13 02:01:31;;;;;;;3.80;3.60;;;19.20;35.60;;;;;;5000409;28;20435;-60
2022/12/13 02:03:56;;;;;;;3.00;2.80;;;19.20;35.60;;;;;;5000052;28;20786;-61
2022/12/13 02:06:33;;;;;;;3.43;3.20;;;19.20;35.60;;;;;;4990047;28;20930;-61
2022/12/13 02:08:59;;;;;;;3.20;3.00;;;19.20;35.60;;;;;;4995768;28;20211;-61
2022/12/13 02:11:26;;;;;;;3.03;2.83;;;19.20;35.60;;;;;;4998756;28;20445;-61
2022/12/13 02:13:52;;;;;;;3.60;3.40;;;19.20;35.60;;;;;;4997436;28;20439;-62
2022/12/13 02:16:39;;;;;;;3.67;3.47;;;19.20;35.60;;;;;;5002221;28;20521;-61
2022/12/13 02:19:16;;;;;;;3.80;3.60;;;19.20;35.60;;;;;;4983080;28;20221;-61
2022/12/13 02:22:05;;;;;;;3.33;3.13;;;19.20;35.60;;;;;;4994817;28;20456;-61
2022/12/13 02:25:10;;;;;;;3.57;3.30;;;19.20;35.60;;;;;;4972995;28;20442;-61
2022/12/13 02:28:05;;;;;;;3.40;3.20;;;19.20;35.60;;;;;;4993026;28;20460;-61
2022/12/13 02:30:51;;;;;;;3.50;3.30;;;19.20;35.60;;;;;;4977859;28;20458;-61
2022/12/13 02:33:57;;;;;;;3.67;3.47;;;19.20;35.60;;;;;;4983196;28;20444;-61
2022/12/13 02:36:29;;;;;;;3.37;3.17;;;19.10;35.50;;;;;;4984119;28;20465;-61
2022/12/13 02:39:01;;;;;;;3.20;3.00;;;19.20;35.70;;;;;;4982835;28;20467;-61
2022/12/13 02:41:42;;;;;;;3.43;3.23;;;19.10;35.50;;;;;;4979723;28;20555;-62
2022/12/13 02:44:30;;;;;;;3.33;3.13;;;19.20;35.60;;;;;;4982033;28;20471;-61
2022/12/13 02:47:16;;;;;;;4.13;3.93;;;19.20;35.60;;;;;;4981433;28;20470;-61
2022/12/13 02:49:48;;;;;;;3.20;3.00;;;19.10;35.50;;;;;;4987407;28;20452;-61
2022/12/13 02:52:17;;;;;;;5.13;3.80;;;19.20;35.70;;;;;;4977447;28;20442;-61
2022/12/13 02:54:42;;;;;;;2.80;2.60;;;19.20;35.60;;;;;;4987751;28;20445;-61
2022/12/13 02:57:31;;;;;;;3.10;2.90;;;19.20;35.60;;;;;;4982747;28;20955;-61
2022/12/13 03:00:06;;;;;;;3.77;3.57;;;19.20;35.60;;;;;;4996828;28;20222;-61
2022/12/13 03:02:56;;;;;;;3.10;2.90;;;19.10;35.40;;;;;;4996128;28;20558;-61
2022/12/13 03:08:38;;;;;;;3.10;2.90;;;19.20;35.60;;;;;;4999380;28;20464;-61
2022/12/13 03:11:10;;;;;;;3.30;3.10;;;19.20;35.50;;;;;;5004518;28;21001;-61
2022/12/13 03:13:56;;;;;;;3.40;3.20;;;19.20;35.60;;;;;;4995306;28;20472;-60
2022/12/13 03:16:36;;;;;;;3.13;2.93;;;19.20;35.60;;;;;;4996066;28;20510;-61
2022/12/13 03:19:08;;;;;;;3.13;2.93;;;19.20;35.50;;;;;;4996757;28;20484;-61
2022/12/13 03:21:43;;;;;;;3.37;3.17;;;19.20;35.50;;;;;;4989488;28;20954;-61
2022/12/13 03:24:09;;;;;;;3.57;3.37;;;19.20;35.50;;;;;;4997081;28;20922;-61
2022/12/13 03:26:37;;;;;;;3.10;2.90;;;19.20;35.50;;;;;;4997850;28;20424;-61
2022/12/13 03:29:03;;;;;;;3.50;3.30;;;19.20;35.60;;;;;;5000139;28;20223;-61
2022/12/13 03:31:28;;;;;;;3.37;3.17;;;19.20;35.50;;;;;;5010067;28;20451;-61
2022/12/13 03:33:54;;;;;;;3.27;3.07;;;19.20;35.60;;;;;;4988844;28;20248;-61
2022/12/13 03:36:20;;;;;;;3.20;3.00;;;19.20;35.60;;;;;;4976399;28;20223;-61
2022/12/13 03:38:47;;;;;;;3.33;3.13;;;19.20;35.60;;;;;;4987017;28;20219;-61
2022/12/13 03:41:16;;;;;;;3.10;2.90;;;19.20;35.50;;;;;;4983737;28;20428;-61
2022/12/13 03:43:42;;;;;;;3.20;3.00;;;19.20;35.50;;;;;;4987104;28;20452;-61
2022/12/13 03:46:08;;;;;;;3.93;3.67;;;19.20;35.50;;;;;;4988031;28;20434;-61
2022/12/13 03:48:34;;;;;;;3.63;3.43;;;19.20;35.50;;;;;;4981893;28;20224;-61
2022/12/13 03:51:00;;;;;;;2.90;2.73;;;19.20;35.50;;;;;;4977312;28;20480;-61
2022/12/13 03:53:26;;;;;;;3.10;2.90;;;19.20;35.50;;;;;;4980554;28;21063;-61
2022/12/13 03:55:52;;;;;;;3.60;3.40;;;19.20;35.50;;;;;;4979380;28;20236;-61
2022/12/13 03:58:17;;;;;;;3.50;3.30;;;19.20;35.50;;;;;;4979976;28;20443;-61
2022/12/13 04:00:43;;;;;;;2.83;2.73;;;19.20;35.50;;;;;;4975813;28;20270;-62
2022/12/13 04:03:09;;;;;;;3.20;3.00;;;19.20;36.20;;;;;;4987810;28;20680;-61
2022/12/13 04:05:34;;;;;;;3.30;3.10;;;19.20;35.50;;;;;;4988200;28;20433;-61
2022/12/13 04:08:00;;;;;;;3.37;3.17;;;19.20;35.50;;;;;;4982999;28;20216;-61
2022/12/13 04:10:26;;;;;;;3.53;3.33;;;19.10;35.40;;;;;;4983333;28;20617;-61
2022/12/13 04:15:36;;;;;;;3.77;3.57;;;19.10;35.30;;;;;;4980833;28;20534;-62
2022/12/13 04:18:02;;;;;;;3.27;3.07;;;19.20;35.50;;;;;;4978417;28;20539;-61
2022/12/13 04:20:28;;;;;;;3.40;3.20;;;19.10;35.30;;;;;;4980025;28;20392;-61
2022/12/13 04:22:53;;;;;;;3.20;3.00;;;19.20;36.20;;;;;;4989411;28;20278;-61
2022/12/13 04:25:19;;;;;;;2.60;2.50;;;19.20;35.50;;;;;;4995015;28;20219;-61
2022/12/13 04:27:45;;;;;;;3.13;2.93;;;19.20;35.40;;;;;;5003375;28;20672;-61
2022/12/13 04:30:11;;;;;;;3.67;3.37;;;19.20;35.40;;;;;;4995122;28;21053;-60
2022/12/13 04:32:37;;;;;;;3.47;3.27;;;19.20;35.40;;;;;;4987043;28;21250;-61
2022/12/13 04:35:03;;;;;;;3.40;3.20;;;19.20;35.40;;;;;;4984138;28;20545;-61
2022/12/13 04:37:29;;;;;;;3.10;2.90;;;19.20;35.40;;;;;;4988711;28;20539;-61
2022/12/13 04:39:55;;;;;;;2.97;2.77;;;19.20;35.50;;;;;;4981964;28;20251;-63
2022/12/13 04:42:21;;;;;;;3.33;3.13;;;19.20;35.50;;;;;;4989591;28;20443;-61
2022/12/13 04:44:48;;;;;;;3.20;3.00;;;19.20;35.50;;;;;;5001129;28;20265;-61
2022/12/13 04:47:14;;;;;;;2.77;2.57;;;19.20;35.50;;;;;;5001484;28;20592;-61
2022/12/13 04:49:40;;;;;;;3.53;3.23;;;19.20;35.50;;;;;;4999671;28;20614;-61
2022/12/13 04:52:05;;;;;;;2.87;2.67;;;19.20;35.40;;;;;;5001263;28;20226;-61
2022/12/13 04:54:31;;;;;;;3.43;3.23;;;19.20;35.40;;;;;;5000348;28;20655;-61
2022/12/13 04:56:57;;;;;;;2.90;2.80;;;19.20;35.30;;;;;;4989781;28;20231;-61
2022/12/13 04:59:23;;;;;;;3.27;3.07;;;19.20;35.40;;;;;;4975063;28;20474;-61
2022/12/13 05:01:48;;;;;;;3.00;2.80;;;19.20;35.30;;;;;;4981073;28;20351;-61
2022/12/13 05:04:14;;;;;;;3.33;2.90;;;19.20;35.20;;;;;;5000081;28;20380;-62
2022/12/13 05:06:39;;;;;;;3.57;3.30;;;19.20;35.20;;;;;;5002188;28;20266;-61
2022/12/13 05:09:06;;;;;;;3.03;2.83;;;19.20;35.20;;;;;;5002485;28;20229;-61
2022/12/13 05:11:32;;;;;;;3.30;3.10;;;19.20;35.20;;;;;;4994273;28;20239;-61
2022/12/13 05:13:57;;;;;;;3.30;3.10;;;19.30;35.30;;;;;;4998932;28;20450;-61
2022/12/13 05:16:23;;;;;;;3.00;2.87;;;19.30;35.30;;;;;;4998242;28;20255;-61
2022/12/13 05:18:48;;;;;;;3.07;2.87;;;19.20;35.20;;;;;;4999801;28;20214;-61
2022/12/13 05:21:14;;;;;;;3.03;2.83;;;19.30;35.30;;;;;;5002199;28;20234;-61
2022/12/13 05:23:39;;;;;;;3.10;2.90;;;19.30;35.20;;;;;;5003066;28;20668;-60
2022/12/13 05:26:05;;;;;;;3.07;2.87;;;19.30;35.20;;;;;;4998533;28;20241;-61
2022/12/13 05:28:31;;;;;;;3.37;3.17;;;19.30;35.20;;;;;;5000620;28;20221;-60
2022/12/13 05:31:04;;;;;;;3.43;3.23;;;19.30;35.20;;;;;;4992600;28;20504;-60
2022/12/13 05:33:30;;;;;;;3.17;2.97;;;19.30;35.10;;;;;;4978239;28;20512;-60
2022/12/13 05:35:55;;;;;;;3.17;2.97;;;19.30;35.10;;;;;;4973785;28;20440;-60
2022/12/13 05:38:21;;;;;;;2.87;2.73;;;19.40;35.20;;;;;;4978261;28;20216;-61
2022/12/13 05:40:46;;;;;;;3.30;3.10;;;19.40;35.20;;;;;;4979911;28;20220;-61
2022/12/13 05:43:13;;;;;;;3.40;3.20;;;19.40;35.10;;;;;;4976521;28;20237;-60
2022/12/13 05:45:38;;;;;;;3.43;3.23;;;19.40;35.10;;;;;;4977566;28;20226;-60
2022/12/13 05:48:04;;;;;;;3.37;3.17;;;19.40;35.10;;;;;;4987551;28;20428;-61
2022/12/13 05:50:29;;;;;;;3.07;2.87;;;19.40;35.10;;;;;;4982962;28;20231;-61
2022/12/13 05:52:55;;;;;;;3.47;3.27;;;19.40;35.20;;;;;;4996832;28;20223;-61
2022/12/13 05:55:20;;;;;;;3.33;3.10;;;19.40;35.10;;;;;;4997611;28;20974;-61
2022/12/13 05:57:46;;;;;;;3.27;3.07;;;19.40;35.10;;;;;;4992616;28;21500;-60
2022/12/13 06:00:12;;;;;;;3.27;3.07;;;19.40;35.10;;;;;;4989652;28;20228;-61
2022/12/13 06:02:40;;;;;;;2.73;2.53;;;19.40;35.20;;;;;;4973368;28;20236;-61
2022/12/13 06:05:06;;;;;;;3.20;3.00;;;19.40;35.10;;;;;;4972444;28;20992;-61
2022/12/13 06:07:32;;;;;;;3.13;2.93;;;19.40;35.10;;;;;;4974963;28;20595;-60
2022/12/13 06:09:57;;;;;;;3.20;3.00;;;19.40;35.10;;;;;;4966739;28;20451;-61
2022/12/13 06:12:23;;;;;;;3.27;3.07;;;19.40;35.10;;;;;;4984074;28;20289;-60
2022/12/13 06:14:49;;;;;;;2.93;2.77;;;19.40;35.10;;;;;;4985655;28;20322;-59
2022/12/13 06:17:14;;;;;;;3.50;3.13;;;19.40;35.10;;;;;;4980173;28;20224;-60
2022/12/13 06:19:40;;;;;;;2.63;2.53;;;19.40;35.10;;;;;;4993709;28;20224;-59
2022/12/13 06:22:05;;;;;;;3.93;3.30;;;19.30;35.00;;;;;;4974018;28;20236;-61
2022/12/13 06:24:31;;;;;;;3.50;3.20;;;19.40;35.10;;;;;;4989694;28;20289;-60
2022/12/13 06:26:58;;;;;;;2.73;2.63;;;19.40;35.10;;;;;;4991356;28;20266;-60
2022/12/13 06:29:25;;;;;;;3.70;3.50;;;19.40;35.10;;;;;;4974527;28;20220;-60
2022/12/13 06:31:52;;;;;;;2.73;2.63;;;19.40;35.00;;;;;;4977414;28;20444;-60
2022/12/13 06:34:18;;;;;;;3.63;3.43;;;19.40;35.00;;;;;;4977268;28;20444;-60
2022/12/13 06:36:43;;;;;;;3.23;3.03;;;19.40;35.10;;;;;;4973765;28;20468;-60
2022/12/13 06:39:09;;;;;;;3.90;3.60;;;19.30;34.90;;;;;;4977617;28;20632;-61
2022/12/13 06:41:35;;;;;;;3.10;2.90;;;19.40;35.10;;;;;;4979474;28;20220;-61
2022/12/13 06:44:01;;;;;;;3.20;3.00;;;19.40;35.10;;;;;;4985082;28;20212;-61
2022/12/13 06:46:26;;;;;;;3.17;2.97;;;19.40;35.00;;;;;;4987273;28;20759;-61
2022/12/13 06:48:52;;;;;;;3.70;2.77;;;19.40;35.00;;;;;;4984377;28;20223;-61
2022/12/13 06:51:18;;;;;;;3.03;2.83;;;19.40;35.00;;;;;;4978678;28;20216;-60
2022/12/13 06:53:43;;;;;;;3.40;3.20;;;19.40;35.00;;;;;;4980258;28;20236;-61
2022/12/13 06:56:13;;;;;;;2.90;2.70;;;19.40;35.00;;;;;;4980403;28;20793;-61
2022/12/13 06:58:40;;;;;;;3.10;2.90;;;19.40;35.00;;;;;;4996929;28;20725;-61
2022/12/13 07:01:08;;;;;;;3.10;3.00;;;19.40;35.00;;;;;;4998835;28;20454;-60
2022/12/13 07:03:35;;;;;;;3.60;3.40;;;19.40;35.00;;;;;;4997651;28;20480;-60
2022/12/13 07:06:07;;;;;;;3.13;2.93;;;19.40;35.00;;;;;;4995867;28;20531;-61
2022/12/13 07:08:34;;;;;;;3.50;3.30;;;19.40;35.00;;;;;;4986596;28;20927;-60
2022/12/13 07:11:01;;;;;;;3.87;3.67;;;19.40;35.00;;;;;;4979010;28;20809;-60
2022/12/13 07:13:27;;;;;;;3.57;3.30;;;19.40;34.90;;;;;;4980648;28;20479;-60
2022/12/13 07:15:53;;;;;;;3.37;3.17;;;19.40;35.00;;;;;;4981603;28;21004;-61
2022/12/13 07:18:19;;;;;;;3.40;3.20;;;19.40;34.90;;;;;;4980006;28;20441;-60
2022/12/13 07:20:45;;;;;;;3.40;3.20;;;19.30;34.80;;;;;;4988759;28;20621;-61
2022/12/13 07:23:10;;;;;;;3.53;3.33;;;19.30;34.80;;;;;;4976455;28;20319;-60
2022/12/13 07:25:36;;;;;;;3.47;3.27;;;19.40;34.80;;;;;;4999114;28;20585;-61
2022/12/13 07:28:04;;;;;;;4.57;4.27;;;19.40;34.80;;;;;;4997827;28;21010;-61
2022/12/13 07:30:33;;;;;;;3.80;3.60;;;19.30;34.80;;;;;;4999429;28;20231;-61
2022/12/13 07:33:04;;;;;;;3.50;3.20;;;19.30;34.80;;;;;;4995189;28;20564;-61
2022/12/13 07:35:32;;;;;;;3.00;2.80;;;19.40;34.80;;;;;;4996280;28;20467;-60
2022/12/13 07:37:58;;;;;;;3.17;2.87;;;19.40;34.80;;;;;;4996092;28;20473;-61
2022/12/13 07:40:24;;;;;;;3.10;2.90;;;19.30;34.80;;;;;;4998472;28;20987;-61
2022/12/13 07:42:50;;;;;;;3.47;3.17;;;19.40;34.80;;;;;;4999890;28;20299;-61
2022/12/13 07:45:16;;;;;;;2.80;2.70;;;19.40;34.70;;;;;;4995681;28;20446;-61
2022/12/13 07:47:42;;;;;;;3.40;3.10;;;19.30;34.70;;;;;;4993641;28;20424;-61
2022/12/13 07:50:07;;;;;;;3.97;3.73;;;19.40;34.70;;;;;;4995558;28;20648;-61
2022/12/13 07:52:33;;;;;;;3.00;2.80;;;19.30;34.60;;;;;;4992221;28;20262;-61
2022/12/13 07:54:58;;;;;;;3.07;2.87;;;19.40;34.70;;;;;;4996193;28;20665;-61
2022/12/13 07:57:24;;;;;;;3.13;2.93;;;19.40;34.70;;;;;;4996983;28;20223;-61
2022/12/13 07:59:49;;;;;;;3.70;3.50;;;19.40;34.70;;;;;;5000140;28;20252;-61
2022/12/13 08:02:15;;;;;;;3.50;3.30;;;19.40;34.70;;;;;;4993708;28;20345;-61
2022/12/13 08:04:43;;;;;;;3.17;2.97;;;19.30;34.70;;;;;;4995889;28;20223;-61
2022/12/13 08:07:09;;;;;;;3.63;3.43;;;19.30;34.60;;;;;;4995136;28;20216;-61
2022/12/13 08:09:35;;;;;;;3.50;3.30;;;19.30;34.70;;;;;;4994103;28;20510;-61
2022/12/13 08:12:01;;;;;;;3.70;3.40;;;19.40;34.70;;;;;;5006219;28;20566;-61
2022/12/13 08:14:27;;;;;;;3.10;2.90;;;19.40;34.60;;;;;;4994999;28;20224;-61
2022/12/13 08:16:53;;;;;;;3.43;3.23;;;19.40;34.60;;;;;;4992163;28;20223;-61
2022/12/13 08:19:18;;;;;;;3.33;3.13;;;19.40;34.70;;;;;;4997256;28;20435;-61
2022/12/13 08:21:44;;;;;;;3.50;3.20;;;19.30;34.60;;;;;;4994148;28;20327;-61
2022/12/13 08:24:09;;;;;;;3.47;3.27;;;19.40;34.60;;;;;;4994755;28;20255;-61
2022/12/13 08:26:35;;;;;;;3.17;2.97;;;19.30;34.60;;;;;;4995787;28;20917;-61
2022/12/13 08:29:02;;;;;;;3.57;3.27;;;19.30;34.50;;;;;;4995840;28;20223;-61
2022/12/13 08:31:27;;;;;;;3.50;3.30;;;19.40;34.60;;;;;;4995785;28;20224;-61
2022/12/13 08:33:53;;;;;;;3.47;3.20;;;19.30;34.60;;;;;;4992841;28;20450;-61
2022/12/13 08:36:21;;;;;;;3.37;3.17;;;19.30;34.60;;;;;;4991830;28;20234;-61
2022/12/13 08:38:47;;;;;;;3.03;2.83;;;19.30;34.60;;;;;;4981906;28;20330;-61
2022/12/13 08:41:13;;;;;;;4.13;3.83;;;19.30;34.50;;;;;;4986916;28;21052;-61
2022/12/13 08:43:39;;;;;;;3.20;3.00;;;19.30;34.50;;;;;;4982448;28;20296;-61
2022/12/13 08:46:05;;;;;;;4.03;3.73;;;19.30;34.50;;;;;;4978900;28;20220;-61
2022/12/13 08:48:31;;;;;;;3.30;3.10;;;19.30;34.60;;;;;;4983370;28;20818;-60
2022/12/13 08:51:08;;;;;;;3.37;3.17;;;19.30;34.50;;;;;;4977730;28;20490;-61
2022/12/13 08:53:34;;;;;;;3.37;3.17;;;19.30;34.50;;;;;;4977558;28;20452;-61
2022/12/13 08:56:04;;;;;;;3.53;3.33;;;19.30;34.50;;;;;;4979591;28;20563;-61
2022/12/13 08:58:30;;;;;;;3.23;3.03;;;19.30;34.60;;;;;;4978510;28;20751;-61
2022/12/13 09:00:56;;;;;;;3.30;3.10;;;19.30;34.50;;;;;;4984256;28;20440;-61
2022/12/13 09:03:22;;;;;;;3.43;3.17;;;19.30;34.50;;;;;;4985242;28;20224;-62
2022/12/13 09:05:47;;;;;;;3.10;2.90;;;19.30;34.50;;;;;;4994133;28;20230;-61
2022/12/13 09:08:13;;;;;;;3.17;2.97;;;19.30;34.50;;;;;;4998711;28;20607;-61
2022/12/13 09:10:38;;;;;;;3.53;3.33;;;19.30;34.50;;;;;;4996591;28;20611;-61
2022/12/13 09:13:04;;;;;;;2.90;2.70;;;19.30;34.50;;;;;;4995690;28;20235;-61
2022/12/13 09:15:31;;;;;;;3.33;3.03;;;19.30;34.50;;;;;;4984267;28;20223;-61
2022/12/13 09:17:57;;;;;;;3.67;3.47;;;19.30;34.50;;;;;;4980210;28;20242;-61
2022/12/13 09:20:23;;;;;;;3.10;2.90;;;19.30;34.50;;;;;;4983516;28;20420;-61
2022/12/13 09:22:49;;;;;;;3.40;3.20;;;19.30;34.50;;;;;;4977845;28;20652;-61
2022/12/13 09:25:14;;;;;;;3.23;3.10;;;19.30;34.50;;;;;;4983376;28;20431;-60
2022/12/13 09:27:40;;;;;;;3.17;2.97;;;19.30;34.50;;;;;;4987217;28;20456;-61
2022/12/13 09:30:07;;;;;;;3.43;3.23;;;19.30;34.60;;;;;;4981547;28;20220;-60
2022/12/13 09:32:33;;;;;;;2.97;2.77;;;19.30;34.50;;;;;;4997151;28;20215;-62
2022/12/13 09:34:58;;;;;;;3.17;2.97;;;19.30;34.50;;;;;;4998474;28;20436;-61
2022/12/13 09:37:24;;;;;;;3.23;3.03;;;19.30;34.50;;;;;;4996147;28;20947;-61
2022/12/13 09:39:49;;;;;;;2.67;2.50;;;19.30;34.50;;;;;;4997533;28;20216;-62
2022/12/13 09:42:25;;;;;;;3.37;3.07;;;19.30;34.40;;;;;;4999614;28;20723;-61
2022/12/13 09:44:59;;;;;;;3.07;2.87;;;19.30;34.40;;;;;;4982273;28;20235;-63
2022/12/13 09:47:35;;;;;;;3.53;3.33;;;19.30;34.40;;;;;;4988653;28;20436;-61
2022/12/13 09:50:05;;;;;;;2.87;2.67;;;19.30;34.40;;;;;;4976927;28;20494;-61
2022/12/13 09:52:37;;;;;;;3.40;3.20;;;19.30;34.40;;;;;;4976475;28;20511;-61
2022/12/13 09:55:18;;;;;;;3.03;2.83;;;19.30;34.40;;;;;;4974469;28;20944;-61
2022/12/13 09:57:44;;;;;;;3.60;3.30;;;19.30;34.50;;;;;;4983273;28;20534;-61
2022/12/13 10:00:22;;;;;;;3.33;3.03;;;19.30;34.40;;;;;;4986372;28;20496;-61
2022/12/13 10:02:51;;;;;;;3.00;2.80;;;19.30;34.40;;;;;;4998776;28;20215;-61
2022/12/13 10:05:25;;;;;;;3.30;3.10;;;19.30;34.40;;;;;;4978380;28;20426;-61
2022/12/13 10:07:54;;;;;;;3.27;3.07;;;19.30;34.50;;;;;;4981573;28;20567;-61
2022/12/13 10:10:20;;;;;;;2.70;2.60;;;19.30;34.40;;;;;;4982676;28;20929;-60
2022/12/13 10:12:58;;;;;;;3.53;3.33;;;19.30;34.40;;;;;;4983379;28;20540;-61
2022/12/13 10:15:24;;;;;;;3.40;3.20;;;19.30;34.50;;;;;;4985393;28;20219;-61
2022/12/13 10:17:50;;;;;;;3.30;3.10;;;19.30;34.40;;;;;;4990004;28;21108;-61
2022/12/13 10:20:19;;;;;;;2.93;2.73;;;19.30;34.40;;;;;;4975520;28;20421;-61
2022/12/13 10:22:45;;;;;;;3.00;2.80;;;19.30;34.30;;;;;;4985496;28;20833;-61
2022/12/13 10:25:11;;;;;;;3.10;2.90;;;19.30;34.40;;;;;;5003748;28;20469;-61
2022/12/13 10:27:42;;;;;;;3.23;3.03;;;19.30;34.40;;;;;;4998159;28;20588;-61
2022/12/13 10:30:15;;;;;;;3.50;3.30;;;19.30;34.40;;;;;;4994033;28;20219;-61
2022/12/13 10:32:42;;;;;;;2.80;2.60;;;19.30;34.30;;;;;;4996971;28;20472;-61
2022/12/13 10:35:26;;;;;;;3.30;3.10;;;19.30;34.30;;;;;;4993457;28;21010;-61
2022/12/13 10:37:53;;;;;;;3.60;3.40;;;19.30;34.30;;;;;;4996430;28;21147;-61
2022/12/13 10:40:32;;;;;;;3.17;2.97;;;19.30;34.30;;;;;;5002113;28;20436;-61
2022/12/13 10:43:11;;;;;;;2.90;2.70;;;19.30;34.30;;;;;;4983931;28;20437;-61
2022/12/13 10:45:37;;;;;;;3.07;2.87;;;19.30;34.30;;;;;;4984144;28;20440;-61
2022/12/13 10:48:03;;;;;;;3.07;2.87;;;19.30;34.30;;;;;;4979649;28;20432;-61
2022/12/13 10:50:30;;;;;;;3.10;2.90;;;19.30;34.30;;;;;;4978916;28;20221;-61
2022/12/13 10:52:58;;;;;;;2.90;2.70;;;19.30;34.30;;;;;;4986114;28;20510;-61
2022/12/13 10:55:28;;;;;;;3.23;3.03;;;19.30;34.30;;;;;;4991221;28;20984;-61
2022/12/13 10:58:01;;;;;;;3.13;2.93;;;19.30;34.30;;;;;;4996433;28;20431;-61
2022/12/13 11:00:40;;;;;;;3.20;3.00;;;19.30;35.10;;;;;;4994070;28;20449;-61
2022/12/13 11:03:07;;;;;;;3.07;2.87;;;19.30;34.30;;;;;;4996359;28;20439;-61
2022/12/13 11:05:34;;;;;;;3.00;2.80;;;19.40;34.40;;;;;;4992599;28;20467;-61
2022/12/13 11:08:21;;;;;;;3.20;3.00;;;19.30;34.30;;;;;;4995901;28;20453;-61
2022/12/13 11:10:59;;;;;;;3.40;3.20;;;19.30;34.20;;;;;;4984850;28;20936;-61
2022/12/13 11:13:53;;;;;;;3.57;3.37;;;19.40;34.40;;;;;;4987770;28;20427;-60
2022/12/13 11:16:34;;;;;;;2.90;2.70;;;19.40;34.40;;;;;;4971464;28;20974;-61
2022/12/13 11:19:04;;;;;;;2.70;2.60;;;19.30;34.20;;;;;;4985318;28;20466;-61
2022/12/13 11:21:36;;;;;;;3.07;2.87;;;19.30;34.30;;;;;;4984518;28;20457;-61
2022/12/13 11:24:04;;;;;;;3.63;3.43;;;19.30;34.30;;;;;;4998489;28;20492;-61
2022/12/13 11:26:32;;;;;;;3.60;3.40;;;19.40;34.30;;;;;;5000226;28;20454;-61
2022/12/13 11:29:27;;;;;;;3.23;3.03;;;19.40;34.40;;;;;;4994766;28;20464;-61
2022/12/13 11:32:11;;;;;;;2.67;2.47;;;19.40;34.40;;;;;;4986641;28;20462;-62
2022/12/13 11:35:15;;;;;;;3.20;3.00;;;19.40;34.40;;;;;;4980549;28;20534;-61
2022/12/13 11:38:08;;;;;;;3.07;2.87;;;19.40;34.30;;;;;;4977971;28;22784;-61
2022/12/13 11:40:48;;;;;;;2.77;2.57;;;19.30;34.20;;;;;;4983284;28;20419;-61
2022/12/13 11:43:26;;;;;;;2.93;2.73;;;19.40;34.30;;;;;;4981079;28;20421;-61
2022/12/13 11:45:58;;;;;;;3.20;3.00;;;19.40;34.30;;;;;;4989816;28;20439;-61
2022/12/13 11:48:37;;;;;;;2.90;2.70;;;19.40;34.30;;;;;;4993991;28;20506;-61
2022/12/13 11:51:06;;;;;;;2.80;2.60;;;19.40;34.30;;;;;;4980443;28;20441;-61
2022/12/13 11:53:55;;;;;;;3.30;3.10;;;19.40;34.40;;;;;;4983244;28;20977;-61
2022/12/13 11:56:30;;;;;;;3.20;3.00;;;19.40;34.30;;;;;;4976715;28;20471;-61
2022/12/13 11:59:41;;;;;;;2.70;2.60;;;19.40;34.30;;;;;;4977419;28;20472;-61
2022/12/13 12:02:20;;;;;;;2.50;2.30;;;19.40;34.30;;;;;;4971097;28;20575;-61
2022/12/13 12:04:52;;;;;;;2.30;2.20;;;19.40;34.30;;;;;;4984584;28;20432;-61
2022/12/13 12:07:28;;;;;;;3.13;2.93;;;19.40;34.30;;;;;;4980148;28;20481;-61
2022/12/13 12:09:58;;;;;;;2.73;2.60;;;19.40;34.30;;;;;;4980489;28;20502;-61
2022/12/13 12:12:34;;;;;;;2.57;2.47;;;19.40;34.30;;;;;;4975372;28;20470;-61
2022/12/13 12:15:09;;;;;;;3.10;2.90;;;19.40;34.30;;;;;;4981200;28;20522;-61
2022/12/13 12:17:34;;;;;;;3.03;2.57;;;19.40;34.20;;;;;;4986874;28;20445;-61
2022/12/13 12:20:00;;;;;;;2.73;2.63;;;19.40;34.30;;;;;;4987164;28;20468;-61
2022/12/13 12:22:29;;;;;;;3.00;2.80;;;19.40;34.20;;;;;;4981337;28;20315;-61
2022/12/13 12:25:15;;;;;;;3.13;2.93;;;19.40;34.30;;;;;;4986447;28;20478;-61
2022/12/13 12:28:08;;;;;;;3.20;3.00;;;19.40;34.30;;;;;;4985782;28;20448;-61
2022/12/13 12:30:43;;;;;;;3.13;2.93;;;19.40;34.20;;;;;;4988237;28;20436;-61
2022/12/13 12:33:28;;;;;;;2.50;2.40;;;19.40;34.20;;;;;;4982173;28;20444;-61
2022/12/13 12:36:25;;;;;;;2.93;2.73;;;19.40;34.30;;;;;;4991307;28;20473;-61
2022/12/13 12:39:34;;;;;;;2.73;2.53;;;19.40;34.30;;;;;;4985425;28;20491;-61
2022/12/13 12:42:20;;;;;;;2.80;2.60;;;19.40;34.20;;;;;;4987358;28;20437;-61
2022/12/13 12:44:49;;;;;;;2.83;2.63;;;19.40;34.30;;;;;;4984197;28;20520;-61
2022/12/13 12:47:42;;;;;;;2.40;2.30;;;19.40;34.30;;;;;;4984299;28;20472;-61
2022/12/13 12:50:24;;;;;;;2.30;2.20;;;19.40;34.30;;;;;;5003713;28;20909;-61
2022/12/13 12:53:19;;;;;;;2.77;2.57;;;19.40;34.30;;;;;;4985119;28;20583;-61
2022/12/13 12:56:12;;;;;;;3.03;2.83;;;19.40;34.30;;;;;;4981723;28;20428;-61
2022/12/13 12:58:43;;;;;;;2.40;2.30;;;19.40;34.20;;;;;;5006229;28;20509;-61
2022/12/13 13:01:22;;;;;;;2.53;2.43;;;19.40;34.30;;;;;;5003058;28;20446;-61
2022/12/13 13:03:49;;;;;;;2.23;2.10;;;19.40;34.30;;;;;;5005579;28;20994;-61
2022/12/13 13:06:33;;;;;;;2.40;2.30;;;19.40;34.30;;;;;;4989958;28;20571;-60
2022/12/13 13:09:11;;;;;;;2.50;2.30;;;19.40;34.20;;;;;;4995347;28;20577;-62